Time;durP1;ratioP1;P1;durP2;ratioP2;P2;SDS_P1;SDS_P2;PMS_P1;PMS_P2;Temp;Humidity;BMP_temperature;BMP_pressure;BME280_temperature;BME280_humidity;BME280_pressure;Samples;Min_cycle;Max_cycle;Signal;HPM_P1;HPM_P2
2022/08/16 00:02:10;;;;;;;1.70;1.27;;;24.30;48.80;;;;;;6219527;28;20025;-68
2022/08/16 00:05:12;;;;;;;1.48;1.30;;;24.40;48.50;;;;;;6230549;28;20022;-68
2022/08/16 00:08:12;;;;;;;1.75;1.50;;;24.50;48.20;;;;;;6243304;28;20408;-68
2022/08/16 00:11:14;;;;;;;1.70;1.40;;;24.60;48.10;;;;;;6233961;28;20060;-68
2022/08/16 00:14:18;;;;;;;1.65;1.52;;;24.60;48.00;;;;;;6240901;28;20025;-68
2022/08/16 00:17:19;;;;;;;2.03;1.40;;;24.60;47.80;;;;;;6218782;28;20030;-68
2022/08/16 00:20:20;;;;;;;1.27;1.17;;;24.70;47.70;;;;;;6228493;28;20092;-68
2022/08/16 00:23:21;;;;;;;1.70;1.25;;;24.70;47.50;;;;;;6241698;28;20240;-68
2022/08/16 00:26:22;;;;;;;1.33;1.20;;;24.80;47.50;;;;;;6224742;28;20026;-68
2022/08/16 00:29:23;;;;;;;1.25;1.15;;;24.80;47.40;;;;;;6223668;28;20111;-68
2022/08/16 00:32:24;;;;;;;1.80;1.50;;;24.80;47.30;;;;;;6247230;28;20064;-68
2022/08/16 00:35:29;;;;;;;2.20;1.40;;;24.80;47.30;;;;;;6238767;28;20108;-68
2022/08/16 00:38:30;;;;;;;2.03;1.40;;;24.80;47.30;;;;;;6223593;28;20030;-69
2022/08/16 00:41:32;;;;;;;3.00;1.25;;;24.80;47.20;;;;;;6241072;28;20022;-69
2022/08/16 00:44:35;;;;;;;1.40;1.30;;;24.90;47.10;;;;;;6246057;28;20022;-68
2022/08/16 00:47:43;;;;;;;3.67;1.50;;;24.90;47.00;;;;;;6222823;28;20485;-68
2022/08/16 00:50:45;;;;;;;1.52;1.27;;;24.90;47.00;;;;;;6228425;28;20171;-68
2022/08/16 00:53:46;;;;;;;1.85;1.40;;;24.90;46.90;;;;;;6247243;28;20627;-68
2022/08/16 00:56:50;;;;;;;1.80;1.40;;;24.90;46.90;;;;;;6229854;28;20037;-68
2022/08/16 00:59:50;;;;;;;1.35;1.17;;;24.90;46.80;;;;;;6223467;28;20052;-68
2022/08/16 01:02:51;;;;;;;1.65;1.40;;;24.90;46.70;;;;;;6222566;28;20044;-68
2022/08/16 01:05:52;;;;;;;1.40;1.30;;;24.90;46.80;;;;;;6234951;28;20093;-68
2022/08/16 01:08:55;;;;;;;1.77;1.48;;;24.90;46.70;;;;;;6246279;28;20021;-68
2022/08/16 01:11:56;;;;;;;1.20;1.10;;;24.90;46.50;;;;;;6242682;28;20033;-68
2022/08/16 01:14:59;;;;;;;1.30;1.10;;;24.90;46.50;;;;;;6244689;28;20550;-67
2022/08/16 01:18:03;;;;;;;1.70;1.45;;;24.90;46.60;;;;;;6201179;28;20033;-68
2022/08/16 01:21:10;;;;;;;1.55;1.45;;;24.90;46.50;;;;;;6228832;28;20036;-68
2022/08/16 01:24:23;;;;;;;1.70;1.30;;;24.90;46.40;;;;;;6243965;28;20056;-68
2022/08/16 01:27:32;;;;;;;1.58;1.40;;;24.90;46.40;;;;;;6226092;28;20029;-68
2022/08/16 01:30:39;;;;;;;1.88;1.40;;;25.00;46.40;;;;;;6224375;28;20034;-69
2022/08/16 01:33:39;;;;;;;1.58;1.35;;;25.00;46.30;;;;;;6245226;28;20647;-68
2022/08/16 01:36:40;;;;;;;1.20;1.10;;;25.00;46.30;;;;;;6234771;28;20041;-68
2022/08/16 01:39:41;;;;;;;1.50;1.30;;;25.00;46.30;;;;;;6220729;28;20025;-68
2022/08/16 01:42:44;;;;;;;1.20;1.10;;;25.00;46.20;;;;;;6239860;28;20101;-68
2022/08/16 01:45:45;;;;;;;1.50;1.13;;;25.00;46.20;;;;;;6242147;28;20080;-68
2022/08/16 01:48:46;;;;;;;1.40;1.30;;;25.00;46.10;;;;;;6219866;28;20021;-68
2022/08/16 01:51:52;;;;;;;1.73;1.40;;;25.00;46.10;;;;;;6229231;28;20030;-68
2022/08/16 01:54:53;;;;;;;1.38;1.13;;;25.00;46.10;;;;;;6243985;28;20033;-68
2022/08/16 01:57:53;;;;;;;1.60;1.30;;;25.00;46.00;;;;;;6227113;28;20045;-68
2022/08/16 02:00:54;;;;;;;1.70;1.40;;;25.00;46.00;;;;;;6216473;28;20113;-68
2022/08/16 02:03:56;;;;;;;1.20;1.10;;;25.00;46.00;;;;;;6220606;28;20018;-68
2022/08/16 02:06:58;;;;;;;1.92;1.30;;;25.00;45.90;;;;;;6218913;28;20025;-68
2022/08/16 02:09:58;;;;;;;1.48;1.23;;;25.00;46.00;;;;;;6219327;28;20026;-68
2022/08/16 02:12:59;;;;;;;1.80;1.20;;;25.00;45.80;;;;;;6222321;28;20052;-68
2022/08/16 02:16:00;;;;;;;1.25;1.05;;;25.00;45.80;;;;;;6218878;28;20080;-67
2022/08/16 02:19:02;;;;;;;1.58;1.48;;;25.00;45.80;;;;;;6243538;28;20022;-68
2022/08/16 02:22:04;;;;;;;1.38;1.20;;;25.00;45.80;;;;;;6235306;28;20057;-68
2022/08/16 02:25:10;;;;;;;1.25;1.15;;;25.00;45.80;;;;;;6218097;28;20054;-67
2022/08/16 02:28:11;;;;;;;1.50;1.10;;;25.00;45.70;;;;;;6235501;28;20120;-68
2022/08/16 02:31:13;;;;;;;1.30;1.17;;;25.00;45.70;;;;;;6242869;28;20036;-69
2022/08/16 02:34:15;;;;;;;1.27;1.17;;;25.00;45.70;;;;;;6194378;28;20471;-68
2022/08/16 02:37:16;;;;;;;1.30;1.20;;;25.00;45.70;;;;;;6209597;28;20041;-68
2022/08/16 02:40:17;;;;;;;1.63;1.38;;;25.00;45.70;;;;;;6243134;28;20079;-68
2022/08/16 02:43:18;;;;;;;3.45;1.00;;;25.00;45.60;;;;;;6227360;28;20064;-68
2022/08/16 02:46:18;;;;;;;1.58;1.48;;;25.00;45.60;;;;;;6218239;28;20026;-69
2022/08/16 02:49:19;;;;;;;1.20;1.10;;;25.00;45.60;;;;;;6241699;28;20388;-68
2022/08/16 02:52:20;;;;;;;1.30;1.20;;;25.00;45.60;;;;;;6235356;28;20499;-68
2022/08/16 02:55:20;;;;;;;1.60;1.38;;;25.00;45.60;;;;;;6217617;28;20038;-68
2022/08/16 02:58:24;;;;;;;1.20;1.10;;;25.00;45.50;;;;;;6232058;28;20112;-68
2022/08/16 03:01:30;;;;;;;1.10;1.00;;;25.00;45.50;;;;;;6223633;28;20109;-68
2022/08/16 03:04:30;;;;;;;1.52;1.08;;;25.10;45.50;;;;;;6238534;28;20032;-68
2022/08/16 03:07:31;;;;;;;1.42;1.23;;;25.10;45.50;;;;;;6237869;28;20434;-68
2022/08/16 03:10:32;;;;;;;1.30;1.20;;;25.10;45.40;;;;;;6222924;28;20419;-68
2022/08/16 03:13:32;;;;;;;1.70;1.30;;;25.10;45.40;;;;;;6228665;28;20456;-68
2022/08/16 03:16:33;;;;;;;1.48;1.27;;;25.00;45.40;;;;;;6217903;28;20108;-68
2022/08/16 03:19:34;;;;;;;1.25;1.15;;;25.10;45.30;;;;;;6240023;28;20109;-68
2022/08/16 03:22:35;;;;;;;1.50;1.30;;;25.10;45.20;;;;;;6239233;28;20026;-68
2022/08/16 03:25:36;;;;;;;1.48;1.33;;;25.10;45.30;;;;;;6201302;28;20145;-68
2022/08/16 03:28:37;;;;;;;1.20;1.10;;;25.00;45.30;;;;;;6217964;28;20018;-68
2022/08/16 03:31:38;;;;;;;1.35;1.15;;;25.10;45.40;;;;;;6243426;28;20391;-69
2022/08/16 03:34:39;;;;;;;1.08;0.98;;;25.10;45.30;;;;;;6223121;28;20028;-68
2022/08/16 03:37:42;;;;;;;1.73;1.30;;;25.10;45.20;;;;;;6220195;28;20038;-68
2022/08/16 03:40:43;;;;;;;1.48;1.20;;;25.10;45.10;;;;;;6242850;28;20072;-68
2022/08/16 03:43:44;;;;;;;1.50;1.20;;;25.10;45.20;;;;;;6230624;28;20021;-68
2022/08/16 03:46:45;;;;;;;1.70;1.30;;;25.10;45.10;;;;;;6218389;28;20029;-69
2022/08/16 03:49:50;;;;;;;1.35;1.25;;;25.10;45.10;;;;;;6237246;28;20025;-68
2022/08/16 03:52:50;;;;;;;1.63;1.27;;;25.10;45.10;;;;;;6240590;28;20025;-68
2022/08/16 03:55:51;;;;;;;1.08;0.98;;;25.10;45.20;;;;;;6217866;28;20404;-68
2022/08/16 03:58:52;;;;;;;1.60;1.33;;;25.10;45.10;;;;;;6227473;28;20029;-68
2022/08/16 04:01:52;;;;;;;1.20;1.10;;;25.10;45.10;;;;;;6234059;28;20030;-68
2022/08/16 04:04:53;;;;;;;1.27;1.17;;;25.10;45.00;;;;;;6243647;28;20080;-68
2022/08/16 04:07:54;;;;;;;1.20;1.10;;;25.10;45.00;;;;;;6249274;28;20029;-69
2022/08/16 04:10:55;;;;;;;1.30;1.20;;;25.10;45.00;;;;;;6233262;28;20029;-67
2022/08/16 04:13:55;;;;;;;1.40;1.25;;;25.10;45.10;;;;;;6242424;28;20034;-68
2022/08/16 04:16:56;;;;;;;1.42;1.20;;;25.10;45.00;;;;;;6226010;28;20034;-68
2022/08/16 04:19:57;;;;;;;1.27;1.17;;;25.10;44.90;;;;;;6242790;28;20021;-68
2022/08/16 04:22:58;;;;;;;1.10;1.00;;;25.10;44.90;;;;;;6250247;28;20507;-67
2022/08/16 04:25:59;;;;;;;1.45;1.20;;;25.10;45.00;;;;;;6225831;28;20053;-67
2022/08/16 04:29:01;;;;;;;2.05;1.30;;;25.10;44.90;;;;;;6232308;28;20033;-68
2022/08/16 04:32:03;;;;;;;1.20;1.10;;;25.10;45.00;;;;;;6247884;28;20049;-68
2022/08/16 04:35:06;;;;;;;1.67;1.17;;;25.00;45.40;;;;;;6235187;28;20539;-68
2022/08/16 04:38:07;;;;;;;1.40;1.17;;;24.90;45.90;;;;;;6226033;28;20137;-68
2022/08/16 04:41:08;;;;;;;2.65;1.65;;;24.80;46.50;;;;;;6248513;28;20024;-68
2022/08/16 04:44:09;;;;;;;1.20;1.10;;;24.70;47.10;;;;;;6242763;28;20524;-68
2022/08/16 04:47:10;;;;;;;1.30;1.20;;;24.70;47.40;;;;;;6225752;28;20045;-69
2022/08/16 04:50:22;;;;;;;1.40;1.30;;;24.60;47.90;;;;;;6240169;28;20030;-68
2022/08/16 04:53:23;;;;;;;1.20;1.10;;;24.60;48.10;;;;;;6249870;28;20014;-68
2022/08/16 04:56:24;;;;;;;1.20;1.10;;;24.60;48.30;;;;;;6227220;28;20121;-68
2022/08/16 05:03:21;;;;;;;1.23;1.13;;;24.50;48.70;;;;;;6218521;28;20471;-68
2022/08/16 05:06:22;;;;;;;1.10;1.00;;;24.50;48.50;;;;;;6245364;28;20040;-68
2022/08/16 05:09:22;;;;;;;1.13;1.02;;;24.50;48.80;;;;;;6244592;28;20029;-68
2022/08/16 05:12:23;;;;;;;1.15;1.05;;;24.50;49.00;;;;;;6240581;28;20073;-68
2022/08/16 05:15:24;;;;;;;1.65;1.17;;;24.50;48.90;;;;;;6232286;28;20033;-68
2022/08/16 05:18:26;;;;;;;1.10;1.00;;;24.50;48.90;;;;;;6220399;28;20119;-68
2022/08/16 05:21:27;;;;;;;1.63;1.30;;;24.50;49.00;;;;;;6239663;28;20137;-68
2022/08/16 05:24:28;;;;;;;1.48;1.30;;;24.50;49.00;;;;;;6241151;28;20420;-68
2022/08/16 05:27:28;;;;;;;1.35;1.20;;;24.40;48.90;;;;;;6219918;28;20041;-68
2022/08/16 05:30:29;;;;;;;1.50;1.20;;;24.40;49.10;;;;;;6232403;28;20033;-68
2022/08/16 05:33:30;;;;;;;1.25;1.15;;;24.40;49.20;;;;;;6245035;28;20065;-68
2022/08/16 05:36:31;;;;;;;1.33;1.20;;;24.40;49.20;;;;;;6227207;28;20034;-69
2022/08/16 05:39:32;;;;;;;1.67;1.13;;;24.40;49.30;;;;;;6223086;28;20029;-68
2022/08/16 05:42:33;;;;;;;2.05;1.25;;;24.40;49.60;;;;;;6231463;28;20504;-68
2022/08/16 05:45:33;;;;;;;1.27;1.17;;;24.40;49.40;;;;;;6208446;28;20063;-67
2022/08/16 05:48:34;;;;;;;2.45;1.20;;;24.40;49.40;;;;;;6205207;28;20231;-68
2022/08/16 05:51:38;;;;;;;1.30;1.20;;;24.40;49.40;;;;;;6224990;28;20048;-67
2022/08/16 05:54:40;;;;;;;1.45;1.35;;;24.40;49.30;;;;;;6220120;28;20485;-69
2022/08/16 05:57:41;;;;;;;1.50;1.02;;;24.40;49.20;;;;;;6244398;28;20022;-68
2022/08/16 06:00:41;;;;;;;1.10;1.00;;;24.40;49.10;;;;;;6225412;28;20084;-68
2022/08/16 06:03:42;;;;;;;1.42;1.15;;;24.40;49.20;;;;;;6219939;28;20025;-68
2022/08/16 06:06:43;;;;;;;1.98;1.42;;;24.40;49.20;;;;;;6222313;28;20022;-68
2022/08/16 06:09:44;;;;;;;1.20;1.02;;;24.40;49.90;;;;;;6222849;28;20796;-68
2022/08/16 06:12:44;;;;;;;2.22;1.70;;;24.40;49.30;;;;;;6222477;28;20026;-67
2022/08/16 06:15:45;;;;;;;1.52;1.20;;;24.40;49.30;;;;;;6228770;28;20088;-68
2022/08/16 06:18:46;;;;;;;1.65;1.40;;;24.40;49.30;;;;;;6247460;28;20025;-69
2022/08/16 06:21:47;;;;;;;1.83;1.50;;;24.40;49.30;;;;;;6232723;28;20074;-69
2022/08/16 06:24:49;;;;;;;1.88;1.40;;;24.40;49.40;;;;;;6212061;28;20054;-68
2022/08/16 06:27:51;;;;;;;2.50;1.70;;;24.40;49.40;;;;;;6219865;28;20104;-69
2022/08/16 06:30:52;;;;;;;1.92;1.67;;;24.40;49.40;;;;;;6227512;28;20476;-68
2022/08/16 06:33:52;;;;;;;1.55;1.40;;;24.40;49.50;;;;;;6245971;28;20053;-68
2022/08/16 06:36:53;;;;;;;1.50;1.40;;;24.40;49.50;;;;;;6232918;28;20079;-68
2022/08/16 06:39:54;;;;;;;1.98;1.50;;;24.40;49.50;;;;;;6222207;28;20076;-68
2022/08/16 06:42:55;;;;;;;1.42;1.33;;;24.40;49.60;;;;;;6242297;28;20025;-68
2022/08/16 06:45:55;;;;;;;1.70;1.48;;;24.40;49.60;;;;;;6225539;28;20029;-68
2022/08/16 06:48:56;;;;;;;1.95;1.42;;;24.40;49.70;;;;;;6246725;28;20025;-68
2022/08/16 06:51:57;;;;;;;2.08;1.50;;;24.30;50.30;;;;;;6234321;28;20064;-68
2022/08/16 06:54:57;;;;;;;1.70;1.60;;;24.40;49.70;;;;;;6203498;28;20026;-69
2022/08/16 06:57:58;;;;;;;1.58;1.45;;;24.30;49.70;;;;;;6222844;28;20486;-68
2022/08/16 07:01:00;;;;;;;1.60;1.50;;;24.30;49.70;;;;;;6210410;28;20041;-69
2022/08/16 07:04:01;;;;;;;1.95;1.58;;;24.30;49.70;;;;;;6221127;28;20026;-68
2022/08/16 07:07:04;;;;;;;1.50;1.30;;;24.30;49.70;;;;;;6228693;28;20041;-68
2022/08/16 07:10:08;;;;;;;1.77;1.30;;;24.30;49.80;;;;;;6221104;28;20034;-69
2022/08/16 07:13:08;;;;;;;1.67;1.33;;;24.30;49.80;;;;;;6223368;28;20045;-68
2022/08/16 07:16:13;;;;;;;4.18;1.50;;;24.30;49.80;;;;;;6221856;28;20079;-68
2022/08/16 07:19:15;;;;;;;1.60;1.50;;;24.30;49.80;;;;;;6242132;28;20063;-69
2022/08/16 07:22:17;;;;;;;1.58;1.30;;;24.30;49.90;;;;;;6235279;28;20519;-67
2022/08/16 07:25:17;;;;;;;1.50;1.40;;;24.30;49.90;;;;;;6219014;28;20377;-68
2022/08/16 07:28:19;;;;;;;2.00;1.40;;;24.30;50.00;;;;;;6221809;28;20022;-68
2022/08/16 07:31:20;;;;;;;1.88;1.60;;;24.30;49.90;;;;;;6222384;28;20037;-69
2022/08/16 07:34:21;;;;;;;2.28;1.60;;;24.30;49.90;;;;;;6165784;28;20477;-69
2022/08/16 07:37:22;;;;;;;1.70;1.60;;;24.30;50.10;;;;;;6214521;28;20065;-69
2022/08/16 07:40:24;;;;;;;2.78;1.50;;;24.30;50.10;;;;;;6221199;28;20038;-69
2022/08/16 07:43:25;;;;;;;4.30;1.40;;;24.40;50.20;;;;;;6222069;28;20121;-69
2022/08/16 07:46:25;;;;;;;1.92;1.30;;;24.40;50.00;;;;;;6222150;28;20032;-69
2022/08/16 07:49:26;;;;;;;4.28;1.50;;;24.40;50.70;;;;;;6220731;28;20029;-69
2022/08/16 07:52:27;;;;;;;1.92;1.50;;;24.40;51.20;;;;;;6222693;28;20680;-69
2022/08/16 07:55:28;;;;;;;1.40;1.30;;;24.40;51.20;;;;;;6219719;28;20074;-69
2022/08/16 07:58:29;;;;;;;1.90;1.52;;;24.50;51.10;;;;;;6222340;28;20025;-70
2022/08/16 08:01:30;;;;;;;2.05;1.25;;;24.50;50.90;;;;;;6220836;28;20025;-69
2022/08/16 08:04:32;;;;;;;2.88;1.42;;;24.50;50.80;;;;;;6220531;28;20477;-69
2022/08/16 08:07:33;;;;;;;1.33;1.13;;;24.50;50.60;;;;;;6219513;28;20112;-69
2022/08/16 08:10:34;;;;;;;2.17;1.30;;;24.50;50.50;;;;;;6220198;28;20022;-69
2022/08/16 08:13:35;;;;;;;1.60;1.40;;;24.40;50.50;;;;;;6222255;28;20114;-69
2022/08/16 08:16:36;;;;;;;2.00;1.60;;;24.40;50.60;;;;;;6219849;28;20030;-68
2022/08/16 08:19:36;;;;;;;2.15;1.63;;;24.40;50.70;;;;;;6222652;28;20030;-69
2022/08/16 08:22:38;;;;;;;2.00;1.60;;;24.40;50.60;;;;;;6224318;28;20033;-67
2022/08/16 08:25:44;;;;;;;1.20;1.10;;;24.40;50.60;;;;;;6244087;28;20029;-69
2022/08/16 08:28:45;;;;;;;1.98;1.63;;;24.40;50.60;;;;;;6231026;28;20029;-68
2022/08/16 08:31:46;;;;;;;2.00;1.60;;;24.40;50.60;;;;;;6220544;28;20377;-69
2022/08/16 08:34:47;;;;;;;1.65;1.35;;;24.40;50.60;;;;;;6219786;28;20030;-69
2022/08/16 08:37:47;;;;;;;2.00;1.55;;;24.40;50.60;;;;;;6219509;28;20026;-69
2022/08/16 08:40:48;;;;;;;1.20;1.10;;;24.30;50.50;;;;;;6219961;28;20164;-69
2022/08/16 08:43:49;;;;;;;3.28;1.65;;;24.30;50.50;;;;;;6220629;28;20029;-69
2022/08/16 08:46:50;;;;;;;2.03;1.60;;;24.30;50.50;;;;;;6220299;28;20030;-69
2022/08/16 08:49:50;;;;;;;1.50;1.30;;;24.30;50.50;;;;;;6225946;28;20045;-68
2022/08/16 08:52:52;;;;;;;1.55;1.30;;;24.30;50.50;;;;;;6225699;28;20269;-69
2022/08/16 08:55:53;;;;;;;1.83;1.58;;;24.30;50.60;;;;;;6223847;28;20116;-68
2022/08/16 08:58:53;;;;;;;1.30;1.20;;;24.30;50.60;;;;;;6225634;28;20034;-70
2022/08/16 09:01:54;;;;;;;1.70;1.20;;;24.40;50.70;;;;;;6224174;28;20113;-68
2022/08/16 09:04:55;;;;;;;1.40;1.30;;;24.40;50.70;;;;;;6225004;28;20523;-68
2022/08/16 09:07:55;;;;;;;1.95;1.42;;;24.40;50.70;;;;;;6225390;28;20013;-68
2022/08/16 09:10:57;;;;;;;2.55;1.70;;;24.40;50.70;;;;;;6241813;28;20428;-68
2022/08/16 09:13:57;;;;;;;1.88;1.60;;;24.40;50.70;;;;;;6229313;28;20342;-68
2022/08/16 09:16:58;;;;;;;2.03;1.73;;;24.40;50.80;;;;;;6223278;28;20041;-68
2022/08/16 09:19:59;;;;;;;1.90;1.58;;;24.40;50.80;;;;;;6225011;28;20033;-68
2022/08/16 09:23:01;;;;;;;2.20;1.60;;;24.40;50.80;;;;;;6222676;28;20049;-68
2022/08/16 09:26:06;;;;;;;2.83;1.92;;;24.30;50.70;;;;;;6222780;28;20037;-67
2022/08/16 09:29:07;;;;;;;2.05;1.60;;;24.30;50.70;;;;;;6222770;28;20430;-68
2022/08/16 09:32:08;;;;;;;2.53;1.83;;;24.30;50.70;;;;;;6223723;28;20018;-68
2022/08/16 09:35:09;;;;;;;2.22;1.83;;;24.30;50.70;;;;;;6237686;28;20021;-69
2022/08/16 09:38:12;;;;;;;1.60;1.50;;;24.30;50.70;;;;;;6246040;28;20114;-68
2022/08/16 09:41:12;;;;;;;2.38;1.73;;;24.30;50.70;;;;;;6229423;28;20041;-68
2022/08/16 09:44:13;;;;;;;2.00;1.60;;;24.30;50.70;;;;;;6241146;28;20045;-68
2022/08/16 09:47:14;;;;;;;1.70;1.50;;;24.30;50.70;;;;;;6247232;28;20096;-68
2022/08/16 09:50:14;;;;;;;1.90;1.60;;;24.30;50.70;;;;;;6222723;28;20030;-67
2022/08/16 09:53:21;;;;;;;1.90;1.60;;;24.30;50.70;;;;;;6222257;28;20032;-67
2022/08/16 09:56:27;;;;;;;2.03;1.60;;;24.30;50.70;;;;;;6215983;28;20065;-68
2022/08/16 09:59:28;;;;;;;3.03;1.60;;;24.30;50.70;;;;;;6204287;28;20030;-68
2022/08/16 10:02:28;;;;;;;1.60;1.50;;;24.30;50.70;;;;;;6222255;28;20099;-68
2022/08/16 10:05:29;;;;;;;1.90;1.50;;;24.30;50.80;;;;;;6235115;28;20101;-69
2022/08/16 10:08:30;;;;;;;2.20;1.50;;;24.30;50.80;;;;;;6246466;28;20029;-69
2022/08/16 10:14:50;;;;;;;2.35;1.50;;;24.30;50.80;;;;;;6245721;28;20119;-67
2022/08/16 10:17:53;;;;;;;2.22;1.70;;;24.30;50.80;;;;;;6239386;28;20040;-68
2022/08/16 10:20:54;;;;;;;1.75;1.42;;;24.30;50.80;;;;;;6221746;28;20088;-68
2022/08/16 10:23:55;;;;;;;2.65;1.63;;;24.30;50.80;;;;;;6220785;28;20469;-68
2022/08/16 10:26:56;;;;;;;2.22;1.63;;;24.30;50.90;;;;;;6222103;28;20026;-68
2022/08/16 10:29:57;;;;;;;1.70;1.40;;;24.20;50.80;;;;;;6221871;28;20076;-67
2022/08/16 10:32:57;;;;;;;2.22;1.55;;;24.30;50.90;;;;;;6221737;28;20141;-68
2022/08/16 10:35:59;;;;;;;1.48;1.38;;;24.20;50.80;;;;;;6234899;28;20144;-69
2022/08/16 10:39:00;;;;;;;1.70;1.48;;;24.20;50.80;;;;;;6246175;28;20033;-68
2022/08/16 10:42:01;;;;;;;2.17;1.50;;;24.20;50.80;;;;;;6223784;28;20455;-68
2022/08/16 10:45:02;;;;;;;1.67;1.45;;;24.20;50.80;;;;;;6220816;28;20045;-68
2022/08/16 10:48:05;;;;;;;1.70;1.42;;;24.20;50.90;;;;;;6221881;28;20044;-68
2022/08/16 10:51:06;;;;;;;1.40;1.30;;;24.20;51.60;;;;;;6222259;28;20148;-68
2022/08/16 10:54:07;;;;;;;1.67;1.45;;;24.20;50.90;;;;;;6221017;28;20104;-69
2022/08/16 10:57:08;;;;;;;1.30;1.20;;;24.20;50.90;;;;;;6220909;28;20030;-68
2022/08/16 11:00:13;;;;;;;1.80;1.40;;;24.20;50.90;;;;;;6221680;28;20022;-69
2022/08/16 11:03:14;;;;;;;;;;;24.20;50.90;;;;;;6221636;28;20433;-69
2022/08/16 11:06:15;;;;;;;1.50;1.13;;;24.20;50.90;;;;;;6233637;28;20432;-69
2022/08/16 11:09:16;;;;;;;2.03;1.20;;;24.20;51.00;;;;;;6245766;28;20018;-68
2022/08/16 11:12:16;;;;;;;2.80;1.65;;;24.20;51.00;;;;;;6224242;28;20022;-69
2022/08/16 11:15:17;;;;;;;1.50;1.40;;;24.20;51.00;;;;;;6221610;28;20418;-68
2022/08/16 11:18:18;;;;;;;1.90;1.40;;;24.20;51.00;;;;;;6221176;28;20099;-68
2022/08/16 11:21:20;;;;;;;1.60;1.40;;;24.20;51.00;;;;;;6213686;28;20025;-68
2022/08/16 11:24:21;;;;;;;1.50;1.40;;;24.20;51.00;;;;;;6199210;28;20386;-69
2022/08/16 11:27:22;;;;;;;1.50;1.40;;;24.20;51.10;;;;;;6239133;28;20059;-69
2022/08/16 11:30:23;;;;;;;1.67;1.27;;;24.20;51.00;;;;;;6222643;28;20034;-68
2022/08/16 11:33:24;;;;;;;1.30;1.20;;;24.20;51.00;;;;;;6220458;28;20473;-69
2022/08/16 11:36:25;;;;;;;1.52;1.38;;;24.20;51.10;;;;;;6219956;28;20038;-68
2022/08/16 11:39:27;;;;;;;1.50;1.40;;;24.20;51.10;;;;;;6220883;28;20022;-69
2022/08/16 11:42:28;;;;;;;1.92;1.50;;;24.20;51.10;;;;;;6220817;28;20025;-69
2022/08/16 11:45:29;;;;;;;1.58;1.30;;;24.20;51.10;;;;;;6219663;28;20064;-69
2022/08/16 11:48:32;;;;;;;1.65;1.40;;;24.20;51.20;;;;;;6219835;28;20481;-69
2022/08/16 11:51:32;;;;;;;1.40;1.30;;;24.20;51.10;;;;;;6227603;28;20032;-68
2022/08/16 11:54:33;;;;;;;1.38;1.27;;;24.20;51.10;;;;;;6243331;28;20022;-68
2022/08/16 11:57:35;;;;;;;1.67;1.35;;;24.20;51.10;;;;;;6235773;28;20038;-69
2022/08/16 12:00:38;;;;;;;1.30;1.20;;;24.20;51.10;;;;;;6238565;28;20065;-69
2022/08/16 12:03:38;;;;;;;2.08;1.40;;;24.20;51.20;;;;;;6219496;28;20087;-68
2022/08/16 12:06:40;;;;;;;1.88;1.40;;;24.20;51.20;;;;;;6234698;28;20021;-68
2022/08/16 12:09:40;;;;;;;1.52;1.42;;;24.20;51.20;;;;;;6244791;28;20361;-68
2022/08/16 12:12:42;;;;;;;1.70;1.30;;;24.20;51.20;;;;;;6228865;28;20022;-68
2022/08/16 12:15:43;;;;;;;1.80;1.50;;;24.20;51.20;;;;;;6219235;28;20046;-68
2022/08/16 12:18:44;;;;;;;1.63;1.30;;;24.20;51.20;;;;;;6220207;28;20088;-68
2022/08/16 12:21:44;;;;;;;1.55;1.42;;;24.20;51.20;;;;;;6226405;28;20045;-69
2022/08/16 12:24:46;;;;;;;1.73;1.20;;;24.20;51.20;;;;;;6248372;28;20088;-69
2022/08/16 12:27:49;;;;;;;2.70;1.33;;;24.20;51.20;;;;;;6234828;28;20057;-68
2022/08/16 12:30:51;;;;;;;2.13;1.42;;;24.20;51.20;;;;;;6224903;28;20056;-69
2022/08/16 12:33:52;;;;;;;2.33;1.65;;;24.20;51.20;;;;;;6224867;28;20034;-68
2022/08/16 12:36:53;;;;;;;1.58;1.45;;;24.20;51.20;;;;;;6225121;28;20038;-68
2022/08/16 12:39:55;;;;;;;2.72;1.75;;;24.20;51.20;;;;;;6224636;28;20057;-68
2022/08/16 12:42:58;;;;;;;2.38;1.65;;;24.20;51.20;;;;;;6225033;28;20033;-68
2022/08/16 12:45:59;;;;;;;1.60;1.50;;;24.20;51.20;;;;;;6212076;28;20034;-69
2022/08/16 12:49:00;;;;;;;2.38;1.40;;;24.20;51.20;;;;;;6224757;28;20076;-68
2022/08/16 12:52:01;;;;;;;2.88;1.90;;;24.20;51.20;;;;;;6221917;28;20033;-69
2022/08/16 12:55:03;;;;;;;5.35;1.90;;;24.20;51.30;;;;;;6223971;28;20026;-68
2022/08/16 12:58:05;;;;;;;2.38;1.88;;;24.20;51.30;;;;;;6235222;28;20028;-68
2022/08/16 13:01:07;;;;;;;2.83;1.60;;;24.20;51.30;;;;;;6234887;28;20022;-69
2022/08/16 13:04:08;;;;;;;2.10;1.58;;;24.20;51.30;;;;;;6223244;28;20084;-69
2022/08/16 13:07:09;;;;;;;2.13;1.70;;;24.20;51.30;;;;;;6239340;28;20033;-68
2022/08/16 13:10:13;;;;;;;1.83;1.48;;;24.20;51.30;;;;;;6224455;28;20018;-69
2022/08/16 13:13:23;;;;;;;3.15;1.80;;;24.20;51.30;;;;;;6225094;28;20025;-68
2022/08/16 13:16:24;;;;;;;3.88;2.03;;;24.20;51.30;;;;;;6242765;28;20053;-69
2022/08/16 13:19:25;;;;;;;2.65;1.80;;;24.20;51.30;;;;;;6245227;28;20017;-69
2022/08/16 13:22:25;;;;;;;2.60;1.90;;;24.20;51.40;;;;;;6227346;28;20056;-69
2022/08/16 13:25:28;;;;;;;2.67;2.00;;;24.20;51.40;;;;;;6247145;28;20053;-68
2022/08/16 13:28:28;;;;;;;2.65;1.90;;;24.20;51.40;;;;;;6236068;28;20029;-69
2022/08/16 13:31:29;;;;;;;2.38;1.77;;;24.20;51.40;;;;;;6223478;28;20385;-68
2022/08/16 13:34:30;;;;;;;3.60;1.70;;;24.20;51.40;;;;;;6240798;28;20018;-69
2022/08/16 13:37:31;;;;;;;3.95;1.90;;;24.20;51.40;;;;;;6246711;28;20037;-68
2022/08/16 13:40:32;;;;;;;2.10;1.83;;;24.20;51.40;;;;;;6238092;28;20030;-68
2022/08/16 13:43:33;;;;;;;3.13;1.98;;;24.20;51.40;;;;;;6222710;28;20049;-69
2022/08/16 13:46:34;;;;;;;2.70;1.50;;;24.20;51.50;;;;;;6222400;28;20044;-68
2022/08/16 13:49:35;;;;;;;2.97;1.90;;;24.20;51.50;;;;;;6222671;28;20544;-69
2022/08/16 13:52:37;;;;;;;2.85;2.00;;;24.20;51.40;;;;;;6222371;28;20052;-69
2022/08/16 13:55:37;;;;;;;2.65;1.77;;;24.20;51.40;;;;;;6222624;28;20018;-68
2022/08/16 13:58:38;;;;;;;2.70;1.70;;;24.20;51.40;;;;;;6222592;28;20488;-68
2022/08/16 14:01:39;;;;;;;2.80;1.92;;;24.20;51.50;;;;;;6222647;28;20060;-69
2022/08/16 14:04:41;;;;;;;1.77;1.58;;;24.20;51.50;;;;;;6223337;28;20018;-68
2022/08/16 14:07:42;;;;;;;2.55;1.60;;;24.20;51.50;;;;;;6222591;28;20405;-68
2022/08/16 14:10:42;;;;;;;2.13;1.75;;;24.20;51.50;;;;;;6222749;28;20029;-68
2022/08/16 14:13:43;;;;;;;2.97;1.88;;;24.20;51.50;;;;;;6223024;28;20049;-67
2022/08/16 14:16:44;;;;;;;2.30;1.73;;;24.10;51.40;;;;;;6221590;28;20037;-68
2022/08/16 14:19:46;;;;;;;2.05;1.48;;;24.20;51.50;;;;;;6223164;28;20088;-69
2022/08/16 14:22:46;;;;;;;2.22;1.77;;;24.20;51.50;;;;;;6222162;28;20104;-68
2022/08/16 14:25:47;;;;;;;2.60;1.95;;;24.20;51.50;;;;;;6222865;28;20060;-68
2022/08/16 14:28:51;;;;;;;2.33;1.77;;;24.20;51.50;;;;;;6222974;28;20026;-69
2022/08/16 14:31:57;;;;;;;2.00;1.70;;;24.20;51.50;;;;;;6221789;28;20516;-68
2022/08/16 14:34:59;;;;;;;2.80;1.77;;;24.10;51.40;;;;;;6222263;28;20511;-68
2022/08/16 14:38:00;;;;;;;2.95;1.70;;;24.10;51.50;;;;;;6221662;28;20669;-69
2022/08/16 14:41:01;;;;;;;2.47;1.80;;;24.20;51.60;;;;;;6229781;28;20026;-68
2022/08/16 14:44:01;;;;;;;2.13;1.70;;;24.10;51.50;;;;;;6226681;28;20115;-69
2022/08/16 14:47:03;;;;;;;4.30;2.00;;;24.20;51.70;;;;;;6246103;28;20055;-69
2022/08/16 14:50:07;;;;;;;2.42;1.90;;;24.20;51.70;;;;;;6243400;28;20033;-69
2022/08/16 14:53:08;;;;;;;3.45;2.38;;;24.20;51.70;;;;;;6221666;28;20022;-68
2022/08/16 14:56:09;;;;;;;2.67;1.75;;;24.20;51.70;;;;;;6242929;28;20037;-68
2022/08/16 14:59:09;;;;;;;3.10;1.80;;;24.20;51.70;;;;;;6240804;28;20556;-69
2022/08/16 15:02:20;;;;;;;3.65;2.17;;;24.20;51.80;;;;;;6221497;28;20018;-68
2022/08/16 15:05:24;;;;;;;3.25;1.83;;;24.20;51.70;;;;;;6227911;28;20018;-68
2022/08/16 15:08:24;;;;;;;3.60;2.10;;;24.20;51.70;;;;;;6245932;28;20017;-68
2022/08/16 15:11:25;;;;;;;2.67;1.95;;;24.20;51.70;;;;;;6233701;28;20076;-68
2022/08/16 15:14:25;;;;;;;4.20;2.47;;;24.20;51.70;;;;;;6240276;28;20060;-68
2022/08/16 15:17:26;;;;;;;2.53;1.95;;;24.20;51.70;;;;;;6220857;28;20034;-68
2022/08/16 15:20:29;;;;;;;2.75;1.88;;;24.20;51.70;;;;;;6223489;28;20045;-68
2022/08/16 15:23:31;;;;;;;3.25;2.30;;;24.20;51.70;;;;;;6218084;28;20432;-68
2022/08/16 15:26:32;;;;;;;2.28;1.90;;;24.20;51.70;;;;;;6226449;28;20029;-69
2022/08/16 15:29:33;;;;;;;3.15;1.90;;;24.20;51.70;;;;;;6223439;28;20029;-68
2022/08/16 15:32:33;;;;;;;4.20;2.00;;;24.20;51.70;;;;;;6220754;28;20072;-68
2022/08/16 15:35:35;;;;;;;3.92;2.22;;;24.20;51.70;;;;;;6220621;28;20574;-68
2022/08/16 15:38:36;;;;;;;3.50;1.98;;;24.10;51.60;;;;;;6220395;28;20030;-68
2022/08/16 15:41:39;;;;;;;3.13;2.20;;;24.20;51.70;;;;;;6223697;28;20036;-68
2022/08/16 15:44:42;;;;;;;2.85;2.08;;;24.10;51.70;;;;;;6243914;28;20538;-68
2022/08/16 15:47:42;;;;;;;2.83;1.80;;;24.10;51.70;;;;;;6228221;28;20033;-69
2022/08/16 15:50:43;;;;;;;2.55;1.80;;;24.10;51.60;;;;;;6231084;28;20029;-69
2022/08/16 15:53:44;;;;;;;3.42;2.00;;;24.10;51.60;;;;;;6245092;28;20025;-69